»·PEaware :: FFT2029 KGEG-KLAS

FFT2029 :: KGEG-KLAS

FLIGHT INFORMATION

Flight Status: Arrived
Operator:
Frontier Airlines
More flights by this operator :: More flights under this callsign
Pilot: Brice B. (24277)
Aircraft: AIRBUS A320
(A320)
More flights by this aircraft type
Origin: KGEG Spokane Intl
United States
Destination: KLAS McCarran Intl
United States
More flights between these airports :: More routes between these airports
Route: +ZATIP Q73 WINEN MPIRE SITEE4
File this flight plan on PilotEdge
Remarks:
Altitude:
(Current/Filed)
37,000ft
Speed:
(Current/Filed)
520kts
Departed: 26-Oct-19 01:53 PM
Arrived: 26-Oct-19 03:40 PM
Distance/Time
Traveled:
700nm/1:46
Distance/Time
To Go:
Arrived

Flight Plot

Page will automatically refresh every two minutes.

Flight plan parsing failed; only flown route is shown


Map Options




Map Legend


Flown Route
Filed Route
Departure Airport
Arrival Airport
Navaid (VOR, NDB)
Fix

Horizontal Profiles

Position Reports

Time Latitude Longitude Heading Altitude Ground
Speed
26-Oct-19 13:37 47.625227 -117.534061 316 2392ft 0kts
26-Oct-19 13:38 47.625227 -117.534061 316 2392ft 0kts
26-Oct-19 13:39 47.625227 -117.534061 316 2392ft 0kts
26-Oct-19 13:40 47.625227 -117.534061 316 2392ft 0kts
26-Oct-19 13:41 47.625227 -117.534061 316 2392ft 0kts
26-Oct-19 13:42 47.625019 -117.533768 316 2392ft 2kts
26-Oct-19 13:43 47.624956 -117.533163 219 2392ft 1kts
26-Oct-19 13:44 47.624990 -117.533119 224 2392ft 0kts
26-Oct-19 13:45 47.624990 -117.533119 224 2392ft 0kts
26-Oct-19 13:46 47.624990 -117.533119 224 2392ft 0kts
26-Oct-19 13:47 47.623486 -117.533961 218 2392ft 10kts
26-Oct-19 13:48 47.620013 -117.539191 225 2392ft 18kts
26-Oct-19 13:49 47.616498 -117.544489 224 2392ft 22kts
26-Oct-19 13:50 47.612414 -117.550617 225 2392ft 16kts
26-Oct-19 13:51 47.610683 -117.550754 135 2392ft 7kts
26-Oct-19 13:52 47.617478 -117.538964 44 2392ft 132kts
26-Oct-19 13:53 47.648927 -117.491933 44 4605ft 169kts
26-Oct-19 13:54 47.676286 -117.427827 97 6833ft 216kts
26-Oct-19 13:55 47.625281 -117.373751 149 9673ft 244kts
26-Oct-19 13:56 47.554696 -117.329678 151 11093ft 311kts
26-Oct-19 13:57 47.466643 -117.275294 152 12249ft 365kts
26-Oct-19 13:58 47.370408 -117.216082 152 14100ft 382kts
26-Oct-19 13:59 47.269933 -117.154501 152 15827ft 397kts
26-Oct-19 14:00 47.165767 -117.090951 153 17378ft 411kts
26-Oct-19 14:01 47.058871 -117.026032 154 18791ft 425kts
26-Oct-19 14:02 46.946989 -116.958392 156 19990ft 441kts
26-Oct-19 14:03 46.834388 -116.890610 157 21369ft 447kts
26-Oct-19 14:04 46.718456 -116.821152 158 22551ft 455kts
26-Oct-19 14:05 46.599316 -116.750117 158 23622ft 464kts
26-Oct-19 14:06 46.478795 -116.678631 158 24621ft 472kts
26-Oct-19 14:07 46.355550 -116.605892 158 25557ft 480kts
26-Oct-19 14:08 46.230830 -116.532629 159 26412ft 488kts
26-Oct-19 14:09 46.101908 -116.465962 161 27217ft 494kts
26-Oct-19 14:10 45.971244 -116.399275 161 27998ft 500kts
26-Oct-19 14:11 45.841747 -116.333531 162 29034ft 498kts
26-Oct-19 14:12 45.711296 -116.267665 163 29999ft 497kts
26-Oct-19 14:13 45.581235 -116.202327 163 30900ft 496kts
26-Oct-19 14:14 45.451373 -116.137396 163 31756ft 495kts
26-Oct-19 14:15 45.321655 -116.072853 163 32564ft 493kts
26-Oct-19 14:16 45.192298 -116.008802 164 33331ft 491kts
26-Oct-19 14:17 45.063449 -115.945303 166 33916ft 493kts
26-Oct-19 14:18 44.931158 -115.880492 169 34018ft 507kts
26-Oct-19 14:19 44.799918 -115.816365 169 34662ft 506kts
26-Oct-19 14:20 44.666706 -115.751670 169 35235ft 505kts
26-Oct-19 14:21 44.534067 -115.687547 169 35757ft 505kts
26-Oct-19 14:22 44.401307 -115.623671 169 36234ft 504kts
26-Oct-19 14:23 44.268048 -115.559880 169 36619ft 505kts
26-Oct-19 14:24 44.135224 -115.496601 169 36986ft 505kts
26-Oct-19 14:25 44.001644 -115.433255 169 37008ft 504kts
26-Oct-19 14:26 43.868994 -115.370643 169 37010ft 504kts
26-Oct-19 14:27 43.737307 -115.308780 170 37006ft 502kts
26-Oct-19 14:28 43.604643 -115.246770 170 36991ft 501kts
26-Oct-19 14:29 43.472162 -115.185114 170 36994ft 502kts
26-Oct-19 14:30 43.339706 -115.124934 173 37003ft 498kts
26-Oct-19 14:31 43.207769 -115.071290 173 37019ft 496kts
26-Oct-19 14:32 43.075986 -115.017980 173 37011ft 492kts
26-Oct-19 14:33 42.945130 -114.965287 175 37002ft 487kts
26-Oct-19 14:34 42.816338 -114.913639 175 36980ft 482kts
26-Oct-19 14:35 42.688301 -114.872216 188 36942ft 458kts
26-Oct-19 14:36 42.561284 -114.859592 188 36944ft 456kts
26-Oct-19 14:37 42.434537 -114.846967 188 36961ft 456kts
26-Oct-19 14:38 42.308040 -114.834423 188 36973ft 457kts
26-Oct-19 14:39 42.181062 -114.821901 188 36992ft 458kts
26-Oct-19 14:40 42.053958 -114.809402 188 37001ft 459kts
26-Oct-19 14:41 41.926298 -114.796946 188 37005ft 459kts
26-Oct-19 14:42 41.799620 -114.784585 188 36967ft 459kts
26-Oct-19 14:43 41.671730 -114.772081 188 36949ft 461kts
26-Oct-19 14:44 41.543325 -114.759632 188 36966ft 462kts
26-Oct-19 14:45 41.414868 -114.747242 188 36967ft 463kts
26-Oct-19 14:46 41.286227 -114.734907 188 36969ft 464kts
26-Oct-19 14:47 41.157484 -114.722584 188 36965ft 464kts
26-Oct-19 14:48 41.028662 -114.710325 187 36929ft 466kts
26-Oct-19 14:49 40.899939 -114.698130 186 36908ft 473kts
26-Oct-19 14:50 40.768766 -114.685711 186 36955ft 478kts
26-Oct-19 14:51 40.635934 -114.673171 186 36993ft 480kts
26-Oct-19 14:52 40.502450 -114.660630 186 36992ft 480kts
26-Oct-19 14:53 40.369252 -114.648170 186 36948ft 479kts
26-Oct-19 14:54 40.237291 -114.635798 185 36950ft 473kts
26-Oct-19 14:55 40.106878 -114.623725 186 36887ft 468kts
26-Oct-19 14:56 39.977682 -114.611826 186 36852ft 465kts
26-Oct-19 14:57 39.849019 -114.600011 186 36852ft 464kts
26-Oct-19 14:58 39.720067 -114.588207 186 36858ft 465kts
26-Oct-19 14:59 39.590589 -114.576402 186 36857ft 469kts
26-Oct-19 15:00 39.460179 -114.564538 186 36918ft 472kts
26-Oct-19 15:01 39.328770 -114.551461 179 36932ft 482kts
26-Oct-19 15:02 39.202853 -114.474221 155 36950ft 515kts
26-Oct-19 15:03 39.080728 -114.378333 156 36938ft 513kts
26-Oct-19 15:04 38.959074 -114.283605 156 36917ft 510kts
26-Oct-19 15:05 38.838706 -114.190269 155 36912ft 504kts
26-Oct-19 15:06 38.718571 -114.097503 155 36872ft 501kts
26-Oct-19 15:07 38.599336 -114.005800 155 36799ft 500kts
26-Oct-19 15:08 38.480130 -113.914456 155 36821ft 500kts
26-Oct-19 15:09 38.360681 -113.823301 155 36839ft 501kts
26-Oct-19 15:10 38.240501 -113.731949 155 36792ft 505kts
26-Oct-19 15:12 38.119362 -113.640211 155 36915ft 508kts
26-Oct-19 15:13 37.997479 -113.548265 155 36969ft 509kts
26-Oct-19 15:14 37.868345 -113.501105 188 36968ft 475kts
26-Oct-19 15:15 37.736838 -113.503497 189 36947ft 473kts
26-Oct-19 15:16 37.605354 -113.505796 189 36943ft 471kts
26-Oct-19 15:17 37.477474 -113.519193 208 36454ft 442kts
26-Oct-19 15:18 37.368717 -113.586522 215 34072ft 434kts
26-Oct-19 15:19 37.260849 -113.655025 214 31540ft 437kts
26-Oct-19 15:20 37.151801 -113.723994 213 28867ft 441kts
26-Oct-19 15:21 37.041558 -113.793494 212 26014ft 445kts
26-Oct-19 15:22 36.931668 -113.862498 211 23700ft 435kts
26-Oct-19 15:23 36.825194 -113.929173 211 21581ft 420kts
26-Oct-19 15:24 36.721781 -113.993813 210 19465ft 409kts
26-Oct-19 15:25 36.620982 -114.056515 210 17380ft 395kts
26-Oct-19 15:26 36.544182 -114.146222 239 15182ft 374kts
26-Oct-19 15:27 36.488377 -114.255313 239 13273ft 367kts
26-Oct-19 15:28 36.439070 -114.351148 239 12624ft 301kts
26-Oct-19 15:29 36.393641 -114.439591 239 12135ft 300kts
26-Oct-19 15:30 36.348712 -114.527039 239 11213ft 294kts
26-Oct-19 15:31 36.304475 -114.612929 239 10237ft 297kts
26-Oct-19 15:31 36.267000 -114.685591 239 9273ft 281kts
26-Oct-19 15:33 36.221327 -114.773977 239 8150ft 254kts
26-Oct-19 15:34 36.183257 -114.847412 239 7208ft 249kts
26-Oct-19 15:34 36.152170 -114.907384 239 6428ft 246kts
26-Oct-19 15:35 36.136842 -114.981339 275 6047ft 208kts
26-Oct-19 15:37 36.148918 -115.061180 294 4889ft 202kts
26-Oct-19 15:37 36.153816 -115.112777 240 3837ft 164kts
26-Oct-19 15:38 36.118734 -115.142174 202 2625ft 155kts
26-Oct-19 15:39 36.085073 -115.161295 206 2139ft 36kts
26-Oct-19 15:40 36.081634 -115.160868 90 2145ft 16kts
26-Oct-19 15:41 36.081577 -115.155168 111 2126ft 9kts
26-Oct-19 15:42 36.078786 -115.152907 100 2124ft 15kts
26-Oct-19 15:43 36.078463 -115.146432 95 2102ft 19kts
26-Oct-19 15:44 36.078267 -115.140417 89 2083ft 16kts
26-Oct-19 15:45 36.078264 -115.135306 90 2067ft 13kts
26-Oct-19 15:46 36.079938 -115.133754 0 2061ft 7kts
26-Oct-19 15:47 36.081917 -115.134591 314 2057ft 4kts
26-Oct-19 15:48 36.082317 -115.135106 313 2058ft 0kts
26-Oct-19 15:49 36.082317 -115.135106 313 2058ft 0kts

Navigation Log

Ident Type
Flight plan parsing failed, navigation log unavailable